Latest Weather Observations for Griffith

IDN60801

Issued at 5:03 pm EST Tuesday 5 May 2026 (issued every 10 minutes, with the page automatically refreshed every 10 minutes)

About weather observations | Map of weather stations | Latest weather observations for NSW | Other Formats
Station Details ID: 075041 Name: GRIFFITH AIRPORT AWS Lat: -34.25 Lon: 146.07 Height: 134.0 m
Data from the previous 72 hours. | See also: Recent months at Griffith
Date/Time
EST
Temp
°C
App
Temp
°C
Dew
Point
°C
Rel
Hum
%
Delta-T
°C
Wind Press
QNH
hPa
Press
MSL
hPa
Rain since
9am
mm
Dir  Spd
km/h
Gust
km/h
Spd
kts
Gust
kts
05/05:00pm 16.8 14.2 9.5 62 3.8 SW 13 17 7 9 1021.7 1021.7 0.0
05/04:30pm 17.3 14.2 8.7 57 4.5 SW 15 20 8 11 1021.5 1021.5 0.0
05/04:00pm 17.3 14.6 9.0 58 4.3 WSW 13 17 7 9 1021.4 1021.4 0.0
05/03:30pm 17.8 15.0 8.4 54 4.9 SW 13 17 7 9 1021.3 1021.3 0.0
05/03:00pm 18.2 15.5 9.0 55 4.8 SW 13 19 7 10 1020.9 1020.9 0.0
05/02:30pm 18.1 15.9 9.5 57 4.5 W 11 17 6 9 1020.9 1020.9 0.0
05/02:00pm 18.1 16.1 10.2 60 4.2 SSW 11 17 6 9 1020.8 1020.8 0.0
05/01:30pm 16.6 13.4 10.0 65 3.5 SW 17 24 9 13 1020.9 1020.9 0.0
05/01:00pm 16.4 13.7 10.3 67 3.2 WSW 15 19 8 10 1021.3 1021.3 0.0
05/12:30pm 16.2 13.0 10.1 67 3.2 WSW 17 22 9 12 1021.5 1021.5 0.0
05/12:00pm 16.5 13.6 11.0 70 3.0 WSW 17 24 9 13 1021.9 1021.9 0.0
05/11:30am 15.9 13.4 10.9 72 2.7 SW 15 22 8 12 1021.9 1021.9 0.0
05/11:00am 15.6 13.1 11.2 75 2.4 SW 15 24 8 13 1022.1 1022.1 0.0
05/10:30am 14.8 12.7 11.2 79 1.9 WSW 13 22 7 12 1022.0 1022.0 0.0
05/10:00am 14.3 12.7 11.6 84 1.4 SW 11 17 6 9 1022.0 1022.0 0.0
05/09:30am 13.3 11.8 11.9 91 0.8 WSW 11 17 6 9 1022.0 1022.0 0.0
05/09:00am 12.4 11.6 11.8 96 0.3 WSW 7 15 4 8 1021.8 1021.8 0.0
05/08:30am 11.0 9.9 10.8 99 0.1 WNW 7 11 4 6 1021.6 1021.6 0.0
05/08:00am 10.4 9.8 10.4 100 0.0 NNW 4 7 2 4 1021.2 1021.2 0.0
05/07:30am 9.0 8.0 9.0 100 0.0 NW 4 6 2 3 1021.0 1021.0 0.0
05/07:00am 8.7 6.7 8.7 100 0.0 NNW 9 11 5 6 1020.5 1020.5 0.0
05/06:30am 9.0 7.6 9.0 100 0.0 NNW 6 7 3 4 1020.3 1020.3 0.0
05/06:00am 9.2 7.9 9.2 100 0.0 NW 6 7 3 4 1019.8 1019.8 0.0
05/05:30am 9.3 7.8 9.3 100 0.0 NW 7 9 4 5 1019.6 1019.6 0.0
05/05:00am 8.9 7.5 8.8 99 0.0 W 6 6 3 3 1019.3 1019.3 0.0
05/04:30am 9.8 8.3 9.3 97 0.2 NW 7 9 4 5 1019.1 1019.1 0.0
05/04:00am 10.3 8.6 9.8 97 0.3 NW 9 11 5 6 1018.8 1018.8 0.0
05/03:30am 10.0 8.2 9.4 96 0.3 NW 9 11 5 6 1018.7 1018.7 0.0
05/03:00am 9.7 8.5 9.4 98 0.1 NW 6 9 3 5 1018.7 1018.7 0.0
05/02:30am 9.9 9.7 9.1 95 0.4 CALM 0 0 0 0 1018.8 1018.8 0.0
05/02:00am 10.4 9.0 9.5 94 0.5 NW 7 11 4 6 1018.8 1018.8 0.0
05/01:30am 10.6 8.9 9.8 95 0.4 N 9 11 5 6 1018.6 1018.6 0.0
05/01:00am 11.0 9.8 9.4 90 0.8 WNW 6 7 3 4 1018.5 1018.5 0.0
05/12:30am 11.4 10.0 9.5 88 1.0 WNW 7 9 4 5 1018.5 1018.5 0.0
05/12:00am 11.8 10.4 9.5 86 1.2 WNW 7 11 4 6 1018.5 1018.5 0.0
 
Date/Time
EST
Temp
°C
App
Temp
°C
Dew
Point
°C
Rel
Hum
%
Delta-T
°C
Wind Press
QNH
hPa
Press
MSL
hPa
Rain since
9am
mm
Dir  Spd
km/h
Gust
km/h
Spd
kts
Gust
kts
04/11:30pm 12.5 10.7 9.5 82 1.5 WNW 9 11 5 6 1018.5 1018.5 0.0
04/11:00pm 13.0 10.5 9.8 81 1.6 WNW 13 17 7 9 1018.4 1018.4 0.0
04/10:30pm 12.5 10.8 9.9 84 1.3 WNW 9 13 5 7 1018.6 1018.6 0.0
04/10:00pm 12.7 11.1 10.2 85 1.3 WNW 9 13 5 7 1018.6 1018.6 0.0
04/09:30pm 12.2 12.3 10.1 87 1.1 CALM 0 0 0 0 1018.6 1018.6 0.0
04/09:00pm 12.7 11.4 10.1 84 1.3 NW 7 9 4 5 1018.3 1018.3 0.0
04/08:30pm 13.2 11.6 10.2 82 1.6 NW 9 11 5 6 1018.1 1018.1 0.0
04/08:00pm 13.7 12.1 10.3 80 1.8 NW 9 11 5 6 1017.8 1017.8 0.0
04/07:30pm 13.9 12.4 10.5 80 1.8 NW 9 11 5 6 1017.5 1017.5 0.0
04/07:00pm 14.6 13.1 10.4 76 2.2 NW 9 11 5 6 1017.2 1017.2 0.0
04/06:30pm 15.3 13.0 10.5 73 2.5 NW 13 15 7 8 1016.7 1016.6 0.0
04/06:00pm 15.9 13.9 10.2 69 3.0 NW 11 13 6 7 1016.2 1016.1 0.0
04/05:30pm 17.3 14.4 9.5 60 4.1 NW 15 20 8 11 1015.8 1015.7 0.0
04/05:00pm 18.2 14.3 8.7 54 4.9 WNW 19 24 10 13 1015.5 1015.5 0.0
04/04:30pm 18.6 15.2 9.1 54 5.0 WNW 17 26 9 14 1015.4 1015.4 0.0
04/04:00pm 18.6 14.0 8.0 50 5.5 NW 22 32 12 17 1015.2 1015.2 0.0
04/03:30pm 19.0 15.0 8.1 49 5.6 WNW 19 28 10 15 1015.1 1015.1 0.0
04/03:00pm 19.8 15.3 8.5 48 5.9 NW 22 33 12 18 1014.8 1014.8 0.0
04/02:30pm 19.5 14.2 8.5 49 5.8 WNW 26 33 14 18 1014.9 1014.9 0.0
04/02:00pm 19.8 15.5 7.9 46 6.2 WNW 20 33 11 18 1014.8 1014.8 0.0
04/01:30pm 19.4 15.4 10.4 56 4.9 NW 22 32 12 17 1014.9 1014.9 0.0
04/01:00pm 19.1 15.2 9.6 54 5.1 NW 20 30 11 16 1015.2 1015.2 0.0
04/12:30pm 18.9 14.6 9.4 54 5.0 NW 22 30 12 16 1015.5 1015.5 0.0
04/12:00pm 18.9 15.9 9.4 54 5.0 NW 15 24 8 13 1016.1 1016.0 0.0
04/11:30am 17.9 14.7 10.0 60 4.2 NW 17 20 9 11 1016.4 1016.3 0.0
04/11:00am 17.3 15.0 11.8 70 3.0 NW 15 19 8 10 1016.8 1016.7 0.0
04/10:30am 16.2 14.6 13.9 86 1.3 NW 15 20 8 11 1017.0 1017.0 0.0
04/10:00am 15.8 14.1 14.8 94 0.6 NNW 17 20 9 11 1016.9 1016.9 0.0
04/09:51am 15.2 13.3 14.2 94 0.6 NNW 17 20 9 11 1016.8 1016.7 0.0
04/09:37am 15.1 13.2 14.3 95 0.5 NNW 17 20 9 11 1016.9 1016.9 0.0
04/09:30am 14.6 12.5 13.6 94 0.6 NNW 17 20 9 11 1016.9 1016.9 0.0
04/09:27am 14.8 12.8 14.0 95 0.5 NNW 17 19 9 10 1016.9 1016.9 0.0
04/09:00am 14.2 12.1 13.7 97 0.3 NNW 17 20 9 11 1016.9 1016.9 24.4
04/08:58am 14.3 12.3 13.8 97 0.3 NNW 17 20 9 11 1016.9 1016.9 24.4
04/08:30am 13.8 12.5 13.6 99 0.1 NNW 13 19 7 10 1016.7 1016.6 24.4
04/08:00am 12.9 11.7 12.9 100 0.0 N 11 15 6 8 1016.6 1016.5 24.4
04/07:30am 12.1 11.0 12.1 100 0.0 N 9 11 5 6 1016.5 1016.4 24.4
04/07:00am 11.5 12.0 11.5 100 0.0 CALM 0 0 0 0 1016.2 1016.1 24.4
04/06:30am 11.9 12.1 11.9 100 0.0 NNE 2 9 1 5 1015.9 1015.8 24.4
04/06:05am 11.6 12.1 11.6 100 0.0 CALM 0 6 0 3 1015.5 1015.5 24.4
04/06:00am 12.0 11.9 12.0 100 0.0 N 4 7 2 4 1015.5 1015.5 24.4
04/05:46am 12.1 12.8 12.1 100 0.0 CALM 0 6 0 3 1015.5 1015.5 24.4
04/05:30am 12.2 11.6 12.2 100 0.0 NW 7 9 4 5 1015.4 1015.4 24.4
04/05:00am 12.5 12.0 12.5 100 0.0 WNW 7 9 4 5 1015.2 1015.2 24.4
04/04:30am 12.9 12.1 12.9 100 0.0 NNW 9 11 5 6 1015.0 1015.0 24.4
04/04:00am 13.0 12.6 13.0 100 0.0 NW 7 11 4 6 1015.2 1015.2 24.4
04/03:30am 13.0 11.9 13.0 100 0.0 NNW 11 13 6 7 1015.4 1015.4 24.4
04/03:00am 12.9 12.1 12.9 100 0.0 NW 9 13 5 7 1015.3 1015.3 24.4
04/02:33am 12.9 11.6 12.6 98 0.2 N 11 15 6 8 1015.6 1015.6 24.4
04/02:30am 12.9 11.3 12.7 99 0.1 N 13 17 7 9 1015.8 1015.7 24.4
04/02:16am 13.0 11.5 13.0 100 0.0 NNW 13 15 7 8 1016.0 1015.9 24.0
04/02:00am 13.1 12.6 12.8 98 0.2 NNW 7 11 4 6 1015.8 1015.7 23.0
04/01:30am 13.1 12.6 12.5 96 0.3 N 7 13 4 7 1016.0 1015.9 23.0
04/01:00am 13.1 12.3 12.8 98 0.2 N 9 11 5 6 1015.9 1015.8 22.8
04/12:30am 13.5 11.7 13.2 98 0.2 NNW 15 20 8 11 1016.5 1016.4 22.4
04/12:00am 13.7 14.0 13.4 98 0.2 WNW 4 7 2 4 1015.6 1015.6 21.4
 
Date/Time
EST
Temp
°C
App
Temp
°C
Dew
Point
°C
Rel
Hum
%
Delta-T
°C
Wind Press
QNH
hPa
Press
MSL
hPa
Rain since
9am
mm
Dir  Spd
km/h
Gust
km/h
Spd
kts
Gust
kts
03/11:30pm 13.7 12.7 13.4 98 0.2 WNW 11 15 6 8 1016.2 1016.1 21.4
03/11:00pm 13.8 13.2 13.5 98 0.2 W 9 13 5 7 1016.2 1016.1 20.6
03/10:30pm 14.2 12.6 14.0 99 0.1 WSW 15 20 8 11 1016.5 1016.4 20.2
03/10:17pm 14.3 11.4 14.1 99 0.1 WSW 22 35 12 19 1016.6 1016.5 20.2
03/10:05pm 14.9 13.9 14.6 98 0.2 W 13 24 7 13 1016.4 1016.3 20.0
03/10:00pm 15.3 15.3 15.1 99 0.1 W 9 20 5 11 1016.2 1016.1 20.0
03/09:30pm 16.7 17.3 16.7 100 0.0 NW 9 11 5 6 1016.0 1015.9 19.6
03/09:02pm 16.5 15.4 16.3 99 0.1 NW 17 24 9 13 1015.9 1015.8 19.0
03/09:00pm 16.5 15.0 16.3 99 0.1 NW 19 28 10 15 1015.9 1015.8 18.8
03/08:59pm 16.5 15.0 16.2 98 0.2 NW 19 28 10 15 1016.0 1015.9 18.8
03/08:56pm 16.5 14.3 16.0 97 0.3 NW 22 30 12 16 1016.0 1015.9 18.6
03/08:30pm 17.9 17.1 17.9 100 0.0 NNW 19 26 10 14 1016.0 1015.9 13.6
03/08:21pm 18.0 18.0 18.0 100 0.0 NNW 15 26 8 14 1015.5 1015.5 11.0
03/08:08pm 18.1 18.1 18.1 100 0.0 NNW 15 20 8 11 1015.8 1015.7 6.8
03/08:00pm 18.2 18.6 18.2 100 0.0 NNW 13 19 7 10 1015.5 1015.5 3.2
03/07:30pm 18.1 18.9 18.1 100 0.0 NW 11 13 6 7 1015.6 1015.6 2.8
03/07:00pm 18.3 19.5 18.3 100 0.0 NW 9 13 5 7 1015.3 1015.3 2.8
03/06:30pm 18.2 18.2 18.2 100 0.0 N 15 19 8 10 1014.9 1014.9 2.6
03/06:00pm 18.0 17.5 17.8 99 0.1 N 17 20 9 11 1014.7 1014.7 2.2
03/05:44pm 18.1 17.0 17.8 98 0.2 NNW 20 30 11 16 1014.8 1014.8 1.8
03/05:30pm 18.5 16.0 18.0 97 0.3 NW 28 39 15 21 1015.2 1015.2 0.8
03/05:18pm 18.2 16.8 17.9 98 0.2 WNW 22 35 12 19 1015.2 1015.2 0.6
03/05:10pm 17.8 15.7 17.2 96 0.4 WNW 24 33 13 18 1015.3 1015.3 0.4
03/05:00pm 20.2 18.2 17.4 84 1.7 NNW 24 35 13 19 1015.1 1015.1 0.0
03/04:58pm 20.3 18.3 17.3 83 1.8 NNW 24 35 13 19 1014.9 1014.9 0.0
03/04:30pm 21.6 19.0 15.9 70 3.4 NNW 24 33 13 18 1014.3 1014.3 0.0
03/04:00pm 21.9 19.2 15.7 68 3.7 N 24 30 13 16 1014.2 1014.2 0.0
03/03:30pm 22.0 18.2 15.8 68 3.7 N 30 41 16 22 1013.9 1013.9 0.0
03/03:00pm 22.1 18.4 15.9 68 3.8 N 30 41 16 22 1013.4 1013.4 0.0
03/02:30pm 22.5 19.4 15.6 65 4.2 N 26 33 14 18 1013.6 1013.6 0.0
03/02:00pm 22.8 19.6 15.4 63 4.5 N 26 35 14 19 1014.2 1014.2 0.0
03/01:30pm 22.8 18.8 15.1 62 4.6 N 30 39 16 21 1014.7 1014.7 0.0
03/01:00pm 23.0 18.1 15.3 62 4.6 N 35 46 19 25 1014.9 1014.9 0.0
03/12:30pm 24.1 19.3 14.5 55 5.7 N 33 44 18 24 1015.0 1015.0 0.0
03/12:00pm 24.8 19.9 14.3 52 6.3 N 33 46 18 25 1015.2 1015.2 0.0
03/11:30am 24.3 18.8 14.7 55 5.7 N 37 46 20 25 1015.4 1015.4 0.0
03/11:00am 23.4 18.0 14.9 59 5.1 N 37 50 20 27 1015.5 1015.5 0.0
03/10:32am 22.3 17.2 14.7 62 4.5 N 35 54 19 29 1015.9 1015.8 0.0
03/10:30am 22.3 17.1 14.4 61 4.7 N 35 44 19 24 1015.9 1015.8 0.0
03/10:16am 21.9 17.3 14.5 63 4.4 N 32 50 17 27 1016.1 1016.0 0.0
03/10:00am 21.2 16.3 14.4 65 4.0 NNE 33 48 18 26 1016.0 1015.9 0.0
03/09:30am 20.9 17.0 14.5 67 3.8 NNE 28 41 15 22 1016.4 1016.3 0.0
03/09:00am 20.6 16.3 14.5 68 3.6 NNE 30 37 16 20 1016.6 1016.5 0.2
03/08:30am 20.3 16.4 14.4 69 3.5 NNE 28 37 15 20 1016.6 1016.5 0.2
03/08:00am 19.4 16.4 14.9 75 2.6 NNE 24 32 13 17 1016.6 1016.5 0.2
03/07:30am 20.4 17.4 13.6 65 3.9 N 22 30 12 16 1016.6 1016.5 0.0
03/07:00am 21.1 17.6 13.5 62 4.4 NNE 24 35 13 19 1015.5 1015.5 0.0
03/06:30am 21.4 18.1 12.8 58 4.9 NNE 22 30 12 16 1015.2 1015.2 0.0
03/06:00am 21.4 18.1 12.8 58 4.9 NNE 22 28 12 15 1015.1 1015.1 0.0
03/05:30am 21.4 17.7 12.8 58 4.9 NNE 24 33 13 18 1015.0 1015.0 0.0
03/05:00am 21.4 17.7 12.8 58 4.9 NNE 24 33 13 18 1014.8 1014.8 0.0
03/04:30am 21.6 17.6 13.0 58 4.9 NNE 26 37 14 20 1014.7 1014.7 0.0
03/04:00am 21.5 17.9 13.2 59 4.8 NNE 24 33 13 18 1014.8 1014.8 0.0
03/03:30am 21.6 17.9 13.8 61 4.5 NNE 26 37 14 20 1015.0 1015.0 0.0
03/03:00am 21.7 18.0 13.9 61 4.6 NE 26 39 14 21 1014.9 1014.9 0.0
03/02:30am 21.7 18.4 13.9 61 4.6 NE 24 33 13 18 1015.1 1015.1 0.0
03/02:00am 21.9 18.8 13.5 59 4.9 NE 22 30 12 16 1015.4 1015.4 0.0
03/01:30am 21.6 18.9 13.5 60 4.7 NNE 20 26 11 14 1015.8 1015.7 0.0
03/01:00am 21.3 18.4 13.0 59 4.8 NNE 20 26 11 14 1016.2 1016.1 0.0
03/12:30am 21.5 18.7 12.6 57 5.1 NNE 19 24 10 13 1016.6 1016.5 0.0
03/12:00am 21.5 18.7 12.6 57 5.1 NNE 19 24 10 13 1016.7 1016.6 0.0
 
Date/Time
EST
Temp
°C
App
Temp
°C
Dew
Point
°C
Rel
Hum
%
Delta-T
°C
Wind Press
QNH
hPa
Press
MSL
hPa
Rain since
9am
mm
Dir  Spd
km/h
Gust
km/h
Spd
kts
Gust
kts
02/11:30pm 21.4 18.5 12.3 56 5.2 NNE 19 24 10 13 1016.9 1016.9 0.0
02/11:00pm 21.8 18.8 12.1 54 5.5 NNE 19 24 10 13 1017.3 1017.3 0.0
02/10:30pm 21.8 19.0 11.5 52 5.8 NNE 17 22 9 12 1017.6 1017.6 0.0
02/10:00pm 22.0 19.1 11.1 50 6.1 NE 17 20 9 11 1017.7 1017.7 0.0
02/09:30pm 22.6 19.7 11.0 48 6.5 NNE 17 22 9 12 1017.6 1017.6 0.0
02/09:00pm 23.2 19.7 10.9 46 6.9 NNE 20 28 11 15 1017.3 1017.3 0.0
02/08:30pm 23.3 19.4 10.7 45 7.0 NNE 22 28 12 15 1017.5 1017.5 0.0
02/08:00pm 23.1 19.0 10.2 44 7.1 NE 22 28 12 15 1017.2 1017.2 0.0
02/07:30pm 22.8 19.6 9.9 44 7.1 NE 17 20 9 11 1017.3 1017.3 0.0
02/07:00pm 23.0 19.8 9.8 43 7.2 NE 17 20 9 11 1017.2 1017.2 0.0
02/06:30pm 23.5 19.8 9.5 41 7.6 NE 19 22 10 12 1017.3 1017.3 0.0
02/06:00pm 23.8 20.4 9.0 39 8.0 NE 17 24 9 13 1017.3 1017.3 0.0
02/05:30pm 24.6 20.8 9.0 37 8.5 NNE 19 24 10 13 1017.1 1017.1 0.0

Other formats

Comma delimited format used in spreadsheet applications
http://www.bom.gov.au/fwo/IDN60801/IDN60801.95704.axf

JavaScript Object Notation format (JSON) in row-major order
http://www.bom.gov.au/fwo/IDN60801/IDN60801.95704.json

Data quality

Most of these data are generated automatically and are frequently updated. Quality checks on data are not normally performed. It is possible for incorrect values to appear. Refer to information at About Latest Weather Observations and please check the disclaimer before using these data.